createdAt,value
2023-02-14T00:00:13.847Z,0.14
2023-02-14T00:04:26.572Z,0.18
2023-02-14T00:08:49.166Z,0.21
2023-02-14T00:13:01.577Z,-0.08
2023-02-14T00:17:14.073Z,-0.06
2023-02-14T00:21:26.532Z,-0.08
2023-02-14T00:25:39.007Z,-0.11
2023-02-14T00:29:51.554Z,-0.03
2023-02-14T00:34:05.473Z,0.23
2023-02-14T00:38:17.970Z,-0.05
2023-02-14T00:42:30.475Z,-0.04
2023-02-14T00:46:44.174Z,-0.10
2023-02-14T00:50:56.851Z,-0.18
2023-02-14T00:55:09.503Z,-0.01
2023-02-14T00:59:22.022Z,0.10
2023-02-14T01:03:35.265Z,-0.01
2023-02-14T01:07:47.726Z,-0.22
2023-02-14T01:12:00.207Z,-0.11
2023-02-14T01:20:46.895Z,0.20
2023-02-14T01:33:58.367Z,0.17
2023-02-14T01:38:10.840Z,0.04
2023-02-14T01:42:23.568Z,0.21
2023-02-14T01:46:38.607Z,-0.04
2023-02-14T01:50:54.698Z,-0.13
2023-02-14T01:55:12.811Z,-0.17
2023-02-14T01:59:30.933Z,-0.08
2023-02-14T02:04:00.503Z,-0.07
2023-02-14T02:08:13.353Z,-0.40
2023-02-14T02:12:29.823Z,-0.10
2023-02-14T02:17:14.321Z,0.07
2023-02-14T02:22:08.224Z,0.00
2023-02-14T02:26:52.923Z,0.05
2023-02-14T02:31:52.268Z,0.12
2023-02-14T02:36:43.493Z,-0.22
2023-02-14T02:41:19.363Z,-0.38
2023-02-14T02:46:15.018Z,-0.50
2023-02-14T02:51:00.264Z,-0.44
2023-02-14T02:55:26.273Z,-0.20
2023-02-14T02:59:43.777Z,-0.05
2023-02-14T03:04:27.669Z,-0.07
2023-02-14T03:08:40.214Z,-0.13
2023-02-14T03:13:29.459Z,-0.27
2023-02-14T03:17:56.656Z,-0.59
2023-02-14T03:22:14.918Z,-0.44
2023-02-14T03:26:39.182Z,-0.40
2023-02-14T03:31:06.071Z,-0.25
2023-02-14T03:36:16.392Z,-0.13
2023-02-14T03:40:38.520Z,-0.15
2023-02-14T03:44:56.000Z,-0.20
2023-02-14T03:49:14.774Z,-0.56
2023-02-14T03:53:32.461Z,-0.26
2023-02-14T03:57:59.642Z,-0.11
2023-02-14T04:02:24.622Z,-0.10
2023-02-14T04:06:37.100Z,-0.47
2023-02-14T04:10:51.710Z,-0.60
2023-02-14T04:15:05.094Z,-0.48
2023-02-14T04:19:23.567Z,-0.28
2023-02-14T04:23:36.075Z,-0.52
2023-02-14T04:27:48.913Z,-0.44
2023-02-14T04:32:01.420Z,-0.43
2023-02-14T04:36:14.062Z,-0.30
2023-02-14T04:40:26.599Z,-0.56
2023-02-14T04:44:39.144Z,-0.36
2023-02-14T04:48:51.628Z,-0.78
2023-02-14T04:53:10.479Z,-0.81
2023-02-14T04:57:23.082Z,-0.87
2023-02-14T05:01:35.584Z,-0.70
2023-02-14T05:05:48.148Z,-0.71
2023-02-14T05:10:00.695Z,-0.61
2023-02-14T05:14:14.595Z,-0.85
2023-02-14T05:18:28.252Z,-0.67
2023-02-14T05:22:40.724Z,-1.07
2023-02-14T05:26:53.304Z,-0.85
2023-02-14T05:31:06.268Z,-1.21
2023-02-14T05:35:19.106Z,-0.85
2023-02-14T05:39:31.552Z,-0.85
2023-02-14T05:43:44.387Z,-0.55
2023-02-14T05:47:59.500Z,-0.69
2023-02-14T05:52:11.944Z,-0.53
2023-02-14T05:56:24.402Z,-1.25
2023-02-14T06:00:40.641Z,-1.15
2023-02-14T06:04:53.540Z,-0.91
2023-02-14T06:09:06.030Z,-1.05
2023-02-14T06:13:18.784Z,-0.74
2023-02-14T06:17:31.244Z,-0.89
2023-02-14T06:21:43.737Z,-1.19
2023-02-14T06:25:56.276Z,-0.97
2023-02-14T06:30:10.608Z,-1.25
2023-02-14T06:34:23.124Z,-0.93
2023-02-14T06:38:35.778Z,-0.84
2023-02-14T06:42:48.399Z,-0.67
2023-02-14T06:47:00.862Z,-0.75
2023-02-14T06:51:13.619Z,-0.54
2023-02-14T06:55:26.369Z,-0.52
2023-02-14T06:59:38.811Z,-1.07
2023-02-14T07:03:51.366Z,-0.89
2023-02-14T07:08:04.344Z,-0.62
2023-02-14T07:12:16.848Z,-0.70
2023-02-14T07:16:29.401Z,-0.66
2023-02-14T07:20:42.760Z,-0.68
2023-02-14T07:24:55.292Z,-0.73
2023-02-14T07:29:07.717Z,-0.80
2023-02-14T07:33:20.120Z,-0.87
2023-02-14T07:37:36.696Z,-0.70
2023-02-14T07:41:49.199Z,-0.66
2023-02-14T07:46:03.561Z,-0.96
2023-02-14T07:50:16.636Z,-0.63
2023-02-14T07:54:29.330Z,-0.93
2023-02-14T07:58:41.881Z,-0.53
2023-02-14T08:02:56.854Z,-0.31
2023-02-14T08:07:09.437Z,-0.55
2023-02-14T08:11:40.435Z,-0.48
2023-02-14T08:16:05.290Z,-0.53
2023-02-14T08:20:17.947Z,-0.26
2023-02-14T08:24:30.892Z,-0.10
2023-02-14T08:28:43.753Z,0.25
2023-02-14T08:32:56.280Z,0.31
2023-02-14T08:37:08.718Z,0.54
2023-02-14T08:41:21.158Z,0.49
2023-02-14T08:45:33.659Z,0.77
2023-02-14T08:49:46.156Z,0.68
2023-02-14T08:53:58.610Z,0.56
2023-02-14T08:58:11.148Z,0.81
2023-02-14T09:02:23.637Z,0.95
2023-02-14T09:06:39.978Z,0.33
2023-02-14T09:10:52.960Z,0.06
2023-02-14T09:15:05.944Z,0.42
2023-02-14T09:19:18.646Z,0.82
2023-02-14T09:23:31.124Z,0.73
2023-02-14T09:27:43.788Z,0.49
2023-02-14T09:32:02.123Z,1.03
2023-02-14T09:36:34.108Z,0.61
2023-02-14T09:40:47.780Z,0.76
2023-02-14T09:45:13.659Z,0.86
2023-02-14T09:49:39.074Z,1.18
2023-02-14T09:54:11.014Z,1.64
2023-02-14T09:58:34.457Z,1.81
2023-02-14T10:03:22.222Z,1.83
2023-02-14T10:07:46.646Z,1.74
2023-02-14T10:12:01.624Z,2.04
2023-02-14T10:16:24.559Z,2.24
2023-02-14T10:20:43.478Z,2.17
2023-02-14T10:25:21.964Z,2.47
2023-02-14T10:29:34.433Z,2.34
2023-02-14T10:34:09.564Z,2.56
2023-02-14T10:38:55.975Z,2.61
2023-02-14T10:43:20.409Z,3.30
2023-02-14T10:48:17.443Z,2.98
2023-02-14T10:53:01.803Z,2.23
2023-02-14T10:57:34.529Z,2.58
2023-02-14T11:01:48.184Z,3.30
2023-02-14T11:06:00.728Z,2.92
2023-02-14T11:10:15.616Z,2.84
2023-02-14T11:14:30.752Z,3.08
2023-02-14T11:18:43.522Z,3.58
2023-02-14T11:22:56.007Z,3.61
2023-02-14T11:27:11.622Z,4.00
2023-02-14T11:31:37.109Z,3.34
2023-02-14T11:35:53.870Z,3.55
2023-02-14T11:40:07.782Z,3.32
2023-02-14T11:44:25.620Z,3.07
2023-02-14T11:48:39.337Z,2.79
2023-02-14T11:52:55.608Z,2.37
2023-02-14T11:57:15.650Z,2.48
2023-02-14T12:01:35.901Z,3.13
2023-02-14T12:05:51.116Z,3.26
2023-02-14T12:10:18.775Z,3.34
2023-02-14T12:14:36.257Z,3.20
2023-02-14T12:19:01.530Z,3.52
2023-02-14T12:24:02.969Z,3.79
2023-02-14T12:28:23.907Z,3.99
2023-02-14T12:32:36.500Z,3.64
2023-02-14T12:36:54.541Z,3.30
2023-02-14T12:41:52.187Z,3.05
2023-02-14T12:46:35.062Z,3.35
2023-02-14T12:51:24.552Z,4.11
2023-02-14T12:55:58.547Z,4.02
2023-02-14T13:00:15.146Z,3.16
2023-02-14T13:04:52.450Z,2.61
2023-02-14T13:09:51.075Z,2.32
2023-02-14T13:14:18.434Z,2.94
2023-02-14T13:19:12.943Z,3.30
2023-02-14T13:23:35.722Z,3.63
2023-02-14T13:27:48.338Z,3.33
2023-02-14T13:32:04.245Z,3.53
2023-02-14T13:36:18.066Z,3.41
2023-02-14T13:40:32.377Z,3.06
2023-02-14T13:44:51.393Z,3.67
2023-02-14T13:49:31.579Z,3.03
2023-02-14T13:53:49.882Z,2.74
2023-02-14T13:58:24.617Z,3.01
2023-02-14T14:02:54.611Z,3.62
2023-02-14T14:07:21.761Z,3.36
2023-02-14T14:11:44.483Z,2.91
2023-02-14T14:16:19.890Z,2.53
2023-02-14T14:20:42.399Z,2.97
2023-02-14T14:24:58.947Z,2.41
2023-02-14T14:29:28.446Z,2.17
2023-02-14T14:33:59.836Z,1.90
2023-02-14T14:38:14.984Z,2.32
2023-02-14T14:42:34.979Z,2.77
2023-02-14T14:46:47.647Z,3.06
2023-02-14T14:51:00.854Z,2.72
2023-02-14T14:55:46.296Z,2.35
2023-02-14T15:00:23.525Z,2.47
2023-02-14T15:04:36.816Z,2.43
2023-02-14T15:08:52.109Z,2.42
2023-02-14T15:13:23.399Z,2.46
2023-02-14T15:17:36.234Z,2.48
2023-02-14T15:21:48.944Z,2.22
2023-02-14T15:26:01.963Z,1.55
2023-02-14T15:30:20.622Z,1.49
2023-02-14T15:34:36.937Z,1.27
2023-02-14T15:38:49.655Z,1.61
2023-02-14T15:43:20.308Z,1.81
2023-02-14T15:47:32.855Z,1.56
2023-02-14T15:51:45.614Z,1.50
2023-02-14T15:56:21.062Z,1.60
2023-02-14T16:00:34.733Z,1.51
2023-02-14T16:04:47.345Z,1.14
2023-02-14T16:08:59.918Z,1.16
2023-02-14T16:13:15.550Z,0.78
2023-02-14T16:17:37.576Z,0.89
2023-02-14T16:21:58.320Z,0.93
2023-02-14T16:26:15.315Z,1.04
2023-02-14T16:30:27.883Z,0.91
2023-02-14T16:34:51.140Z,0.89
2023-02-14T16:39:05.772Z,0.73
2023-02-14T16:43:21.018Z,0.66
2023-02-14T16:47:33.502Z,0.79
2023-02-14T16:51:48.522Z,0.61
2023-02-14T16:56:01.247Z,0.59
2023-02-14T17:00:15.104Z,0.56
2023-02-14T17:04:27.520Z,0.07
2023-02-14T17:08:42.046Z,0.37
2023-02-14T17:12:57.574Z,0.33
2023-02-14T17:17:11.237Z,0.55
2023-02-14T17:21:24.957Z,0.48
2023-02-14T17:25:37.657Z,0.20
2023-02-14T17:29:52.793Z,0.21
2023-02-14T17:34:05.286Z,0.40
2023-02-14T17:38:19.265Z,0.52
2023-02-14T17:42:34.080Z,0.37
2023-02-14T17:46:46.662Z,0.22
2023-02-14T17:51:05.912Z,0.20
2023-02-14T17:55:19.583Z,0.16
2023-02-14T17:59:37.599Z,0.07
2023-02-14T18:03:52.773Z,0.28
2023-02-14T18:08:05.531Z,-0.10
2023-02-14T18:12:18.567Z,-0.08
2023-02-14T18:16:31.144Z,-0.26
2023-02-14T18:20:43.795Z,-0.34
2023-02-14T18:24:59.577Z,-0.36
2023-02-14T18:29:13.536Z,-0.18
2023-02-14T18:33:26.023Z,-0.14
2023-02-14T18:37:38.548Z,0.06
2023-02-14T18:41:51.082Z,-0.21
2023-02-14T18:46:09.939Z,-0.18
2023-02-14T18:50:22.740Z,0.06
2023-02-14T18:54:37.872Z,0.08
2023-02-14T18:58:54.933Z,0.11
2023-02-14T19:03:08.455Z,-0.02
2023-02-14T19:07:20.941Z,0.03
2023-02-14T19:11:33.769Z,0.00
2023-02-14T19:16:00.623Z,-0.45
2023-02-14T19:20:14.859Z,-0.39
2023-02-14T19:24:28.436Z,-0.19
2023-02-14T19:28:57.227Z,-0.12
2023-02-14T19:33:09.685Z,-0.45
2023-02-14T19:37:22.135Z,-0.18
2023-02-14T19:41:35.491Z,-0.04
2023-02-14T19:45:48.577Z,0.11
2023-02-14T19:50:01.156Z,-0.09
2023-02-14T19:54:16.254Z,0.00
2023-02-14T19:58:30.916Z,-0.02
2023-02-14T20:02:48.706Z,-0.26
2023-02-14T20:07:01.196Z,-0.43
2023-02-14T20:11:47.238Z,-0.20
2023-02-14T20:15:59.711Z,-0.22
2023-02-14T20:20:14.517Z,-0.06
2023-02-14T20:24:32.788Z,-0.30
2023-02-14T20:28:45.755Z,-0.48
2023-02-14T20:32:58.199Z,-0.45
2023-02-14T20:37:11.917Z,-0.48
2023-02-14T20:41:24.718Z,-0.27
2023-02-14T20:45:37.247Z,-0.13
2023-02-14T20:49:50.652Z,-0.03
2023-02-14T20:54:13.995Z,-0.23
2023-02-14T20:58:26.551Z,-0.10
2023-02-14T21:02:39.042Z,0.02
2023-02-14T21:06:51.571Z,-0.03
2023-02-14T21:11:05.757Z,-0.11
2023-02-14T21:15:18.331Z,-0.33
2023-02-14T21:19:32.600Z,-0.41
2023-02-14T21:23:45.309Z,-0.29
2023-02-14T21:27:57.741Z,-0.31
2023-02-14T21:32:10.537Z,-0.34
2023-02-14T21:36:26.235Z,-0.39
2023-02-14T21:40:38.644Z,-0.46
2023-02-14T21:45:20.247Z,-0.47
2023-02-14T21:49:51.629Z,-1.04
2023-02-14T21:54:04.313Z,-1.13
2023-02-14T21:58:16.840Z,-0.84
2023-02-14T22:02:29.337Z,-0.98
2023-02-14T22:06:43.717Z,-0.88
2023-02-14T22:10:58.462Z,-0.74
2023-02-14T22:15:10.908Z,-0.65
2023-02-14T22:19:23.596Z,-0.64
2023-02-14T22:23:37.082Z,-0.60
2023-02-14T22:27:49.608Z,-0.57
2023-02-14T22:32:12.807Z,-0.60
2023-02-14T22:36:25.476Z,-0.48
2023-02-14T22:40:38.102Z,-0.58
2023-02-14T22:44:50.728Z,-0.73
2023-02-14T22:49:03.605Z,-0.64
2023-02-14T22:53:16.198Z,-0.55
2023-02-14T22:57:28.784Z,-0.94
2023-02-14T23:01:41.295Z,-0.86
2023-02-14T23:05:58.307Z,-1.01
2023-02-14T23:10:11.772Z,-1.44
2023-02-14T23:14:42.786Z,-1.07
2023-02-14T23:19:14.007Z,-1.24
2023-02-14T23:23:26.555Z,-1.51
2023-02-14T23:27:49.871Z,-1.61
2023-02-14T23:32:02.451Z,-1.39
2023-02-14T23:36:14.972Z,-1.09
2023-02-14T23:40:27.895Z,-1.52
2023-02-14T23:44:40.879Z,-1.20
2023-02-14T23:48:53.304Z,-1.54
2023-02-14T23:53:16.152Z,-1.46
2023-02-14T23:57:29.422Z,-1.30
